<?xml version="1.0" encoding="UTF-8"?>
<gpx xmlns="http://www.topografix.com/GPX/1/1" xmlns:xsi="http://www.w3.org/2001/XMLSchema-instance" version="1.1" xsi:schemaLocation="http://www.topografix.com/GPX/1/1 http://www.topografix.com/GPX/1/1/gpx.xsd">
  <metadata>
    <name>Triatlon Salamanca</name>
  </metadata>
  <trk>
    <name>Triatlon Salamanca</name>
    <trkseg>
      <trkpt lat="40.957113" lon="-5.673689">
        <ele>773.191142</ele>
        <time>2022-05-28T16:08:00.000Z</time>
      </trkpt>
      <trkpt lat="40.957243" lon="-5.673932">
        <ele>773.191147</ele>
        <time>2022-05-28T16:08:03.000Z</time>
      </trkpt>
      <trkpt lat="40.957253" lon="-5.673939">
        <ele>773.191153</ele>
        <time>2022-05-28T16:08:03.000Z</time>
      </trkpt>
      <trkpt lat="40.957401" lon="-5.674256">
        <ele>773.191152</ele>
        <time>2022-05-28T16:08:06.000Z</time>
      </trkpt>
      <trkpt lat="40.957586" lon="-5.674575">
        <ele>773.191153</ele>
        <time>2022-05-28T16:08:09.000Z</time>
      </trkpt>
      <trkpt lat="40.957595" lon="-5.674612">
        <ele>773.191151</ele>
        <time>2022-05-28T16:08:09.000Z</time>
      </trkpt>
      <trkpt lat="40.957708" lon="-5.674807">
        <ele>773.210375</ele>
        <time>2022-05-28T16:08:11.000Z</time>
      </trkpt>
      <trkpt lat="40.957802" lon="-5.674909">
        <ele>773.227156</ele>
        <time>2022-05-28T16:08:12.000Z</time>
      </trkpt>
      <trkpt lat="40.9578" lon="-5.674903">
        <ele>773.227156</ele>
        <time>2022-05-28T16:08:12.000Z</time>
      </trkpt>
      <trkpt lat="40.957791" lon="-5.674897">
        <ele>773.227164</ele>
        <time>2022-05-28T16:08:12.000Z</time>
      </trkpt>
      <trkpt lat="40.957676" lon="-5.675158">
        <ele>773.259463</ele>
        <time>2022-05-28T16:08:15.000Z</time>
      </trkpt>
      <trkpt lat="40.95769" lon="-5.675161">
        <ele>773.259461</ele>
        <time>2022-05-28T16:08:15.000Z</time>
      </trkpt>
      <trkpt lat="40.957643" lon="-5.675495">
        <ele>773.296544</ele>
        <time>2022-05-28T16:08:18.000Z</time>
      </trkpt>
      <trkpt lat="40.957645" lon="-5.675486">
        <ele>773.29656</ele>
        <time>2022-05-28T16:08:18.000Z</time>
      </trkpt>
      <trkpt lat="40.957427" lon="-5.675874">
        <ele>773.348877</ele>
        <time>2022-05-28T16:08:22.000Z</time>
      </trkpt>
      <trkpt lat="40.95743" lon="-5.67587">
        <ele>773.349621</ele>
        <time>2022-05-28T16:08:22.000Z</time>
      </trkpt>
      <trkpt lat="40.957396" lon="-5.675888">
        <ele>773.355322</ele>
        <time>2022-05-28T16:08:22.000Z</time>
      </trkpt>
      <trkpt lat="40.957208" lon="-5.676018">
        <ele>773.385112</ele>
        <time>2022-05-28T16:08:24.000Z</time>
      </trkpt>
      <trkpt lat="40.956817" lon="-5.676207">
        <ele>773.444662</ele>
        <time>2022-05-28T16:08:29.000Z</time>
      </trkpt>
      <trkpt lat="40.956373" lon="-5.676325">
        <ele>774.140951</ele>
        <time>2022-05-28T16:08:34.000Z</time>
      </trkpt>
      <trkpt lat="40.95571" lon="-5.67633">
        <ele>775.255871</ele>
        <time>2022-05-28T16:08:41.000Z</time>
      </trkpt>
      <trkpt lat="40.955401" lon="-5.676311">
        <ele>775.780694</ele>
        <time>2022-05-28T16:08:44.000Z</time>
      </trkpt>
      <trkpt lat="40.955181" lon="-5.676322">
        <ele>776.135504</ele>
        <time>2022-05-28T16:08:46.000Z</time>
      </trkpt>
      <trkpt lat="40.955112" lon="-5.676376">
        <ele>776.289751</ele>
        <time>2022-05-28T16:08:47.000Z</time>
      </trkpt>
      <trkpt lat="40.954975" lon="-5.676366">
        <ele>776.576739</ele>
        <time>2022-05-28T16:08:49.000Z</time>
      </trkpt>
      <trkpt lat="40.954932" lon="-5.676316">
        <ele>776.82816</ele>
        <time>2022-05-28T16:08:50.000Z</time>
      </trkpt>
      <trkpt lat="40.954631" lon="-5.676296">
        <ele>777.986027</ele>
        <time>2022-05-28T16:08:53.000Z</time>
      </trkpt>
      <trkpt lat="40.954622" lon="-5.676296">
        <ele>778.058569</ele>
        <time>2022-05-28T16:08:53.000Z</time>
      </trkpt>
      <trkpt lat="40.95449" lon="-5.676326">
        <ele>778.583371</ele>
        <time>2022-05-28T16:08:54.000Z</time>
      </trkpt>
      <trkpt lat="40.954443" lon="-5.676338">
        <ele>778.722539</ele>
        <time>2022-05-28T16:08:55.000Z</time>
      </trkpt>
      <trkpt lat="40.954363" lon="-5.676454">
        <ele>779.212804</ele>
        <time>2022-05-28T16:08:56.000Z</time>
      </trkpt>
      <trkpt lat="40.954362" lon="-5.67664">
        <ele>779.76286</ele>
        <time>2022-05-28T16:08:58.000Z</time>
      </trkpt>
      <trkpt lat="40.954366" lon="-5.676721">
        <ele>779.981183</ele>
        <time>2022-05-28T16:08:59.000Z</time>
      </trkpt>
      <trkpt lat="40.954603" lon="-5.67776">
        <ele>783.243128</ele>
        <time>2022-05-28T16:09:08.000Z</time>
      </trkpt>
      <trkpt lat="40.954623" lon="-5.67778">
        <ele>783.338442</ele>
        <time>2022-05-28T16:09:08.000Z</time>
      </trkpt>
      <trkpt lat="40.954687" lon="-5.67831">
        <ele>785.091859</ele>
        <time>2022-05-28T16:09:13.000Z</time>
      </trkpt>
      <trkpt lat="40.954656" lon="-5.678632">
        <ele>786.263623</ele>
        <time>2022-05-28T16:09:16.000Z</time>
      </trkpt>
      <trkpt lat="40.954518" lon="-5.679017">
        <ele>787.711163</ele>
        <time>2022-05-28T16:09:20.000Z</time>
      </trkpt>
      <trkpt lat="40.954395" lon="-5.679222">
        <ele>788.614988</ele>
        <time>2022-05-28T16:09:22.000Z</time>
      </trkpt>
      <trkpt lat="40.954008" lon="-5.679556">
        <ele>790.688649</ele>
        <time>2022-05-28T16:09:27.000Z</time>
      </trkpt>
      <trkpt lat="40.953826" lon="-5.679696">
        <ele>791.656092</ele>
        <time>2022-05-28T16:09:29.000Z</time>
      </trkpt>
      <trkpt lat="40.953761" lon="-5.679748">
        <ele>791.941338</ele>
        <time>2022-05-28T16:09:30.000Z</time>
      </trkpt>
      <trkpt lat="40.953484" lon="-5.679976">
        <ele>793.12433</ele>
        <time>2022-05-28T16:09:34.000Z</time>
      </trkpt>
      <trkpt lat="40.953315" lon="-5.680117">
        <ele>793.787556</ele>
        <time>2022-05-28T16:09:36.000Z</time>
      </trkpt>
      <trkpt lat="40.95303" lon="-5.680339">
        <ele>794.964283</ele>
        <time>2022-05-28T16:09:40.000Z</time>
      </trkpt>
      <trkpt lat="40.952962" lon="-5.68038">
        <ele>795.224089</ele>
        <time>2022-05-28T16:09:41.000Z</time>
      </trkpt>
      <trkpt lat="40.951919" lon="-5.68129">
        <ele>799.384185</ele>
        <time>2022-05-28T16:09:55.000Z</time>
      </trkpt>
      <trkpt lat="40.951507" lon="-5.68169">
        <ele>800.889244</ele>
        <time>2022-05-28T16:10:01.000Z</time>
      </trkpt>
      <trkpt lat="40.951443" lon="-5.681752">
        <ele>801.099979</ele>
        <time>2022-05-28T16:10:02.000Z</time>
      </trkpt>
      <trkpt lat="40.950599" lon="-5.682978">
        <ele>804.266577</ele>
        <time>2022-05-28T16:10:16.000Z</time>
      </trkpt>
      <trkpt lat="40.950544" lon="-5.683077">
        <ele>804.456181</ele>
        <time>2022-05-28T16:10:17.000Z</time>
      </trkpt>
      <trkpt lat="40.949866" lon="-5.684074">
        <ele>806.428336</ele>
        <time>2022-05-28T16:10:28.000Z</time>
      </trkpt>
      <trkpt lat="40.949801" lon="-5.684181">
        <ele>806.637802</ele>
        <time>2022-05-28T16:10:29.000Z</time>
      </trkpt>
      <trkpt lat="40.948779" lon="-5.685652">
        <ele>807.368086</ele>
        <time>2022-05-28T16:10:46.000Z</time>
      </trkpt>
      <trkpt lat="40.94869" lon="-5.685814">
        <ele>807.42817</ele>
        <time>2022-05-28T16:10:48.000Z</time>
      </trkpt>
      <trkpt lat="40.948652" lon="-5.685875">
        <ele>807.449522</ele>
        <time>2022-05-28T16:10:49.000Z</time>
      </trkpt>
      <trkpt lat="40.948566" lon="-5.686014">
        <ele>807.501155</ele>
        <time>2022-05-28T16:10:51.000Z</time>
      </trkpt>
      <trkpt lat="40.948301" lon="-5.68666">
        <ele>808.169931</ele>
        <time>2022-05-28T16:10:57.000Z</time>
      </trkpt>
      <trkpt lat="40.946124" lon="-5.692497">
        <ele>815.260637</ele>
        <time>2022-05-28T16:11:52.000Z</time>
      </trkpt>
      <trkpt lat="40.946026" lon="-5.69274">
        <ele>815.8058</ele>
        <time>2022-05-28T16:11:54.000Z</time>
      </trkpt>
      <trkpt lat="40.945978" lon="-5.692872">
        <ele>816.099034</ele>
        <time>2022-05-28T16:11:55.000Z</time>
      </trkpt>
      <trkpt lat="40.945514" lon="-5.694044">
        <ele>818.662648</ele>
        <time>2022-05-28T16:12:06.000Z</time>
      </trkpt>
      <trkpt lat="40.945018" lon="-5.695044">
        <ele>820.678751</ele>
        <time>2022-05-28T16:12:16.000Z</time>
      </trkpt>
      <trkpt lat="40.944887" lon="-5.695333">
        <ele>821.141474</ele>
        <time>2022-05-28T16:12:19.000Z</time>
      </trkpt>
      <trkpt lat="40.944723" lon="-5.695901">
        <ele>821.967766</ele>
        <time>2022-05-28T16:12:24.000Z</time>
      </trkpt>
      <trkpt lat="40.944293" lon="-5.697836">
        <ele>824.952487</ele>
        <time>2022-05-28T16:12:41.000Z</time>
      </trkpt>
      <trkpt lat="40.943788" lon="-5.700133">
        <ele>829.751175</ele>
        <time>2022-05-28T16:13:01.000Z</time>
      </trkpt>
      <trkpt lat="40.943723" lon="-5.700426">
        <ele>830.491283</ele>
        <time>2022-05-28T16:13:04.000Z</time>
      </trkpt>
      <trkpt lat="40.943588" lon="-5.701049">
        <ele>832.080204</ele>
        <time>2022-05-28T16:13:09.000Z</time>
      </trkpt>
      <trkpt lat="40.942456" lon="-5.70607">
        <ele>846.325431</ele>
        <time>2022-05-28T16:13:53.000Z</time>
      </trkpt>
      <trkpt lat="40.941874" lon="-5.708289">
        <ele>850.922142</ele>
        <time>2022-05-28T16:14:13.000Z</time>
      </trkpt>
      <trkpt lat="40.941427" lon="-5.709706">
        <ele>853.394686</ele>
        <time>2022-05-28T16:14:26.000Z</time>
      </trkpt>
      <trkpt lat="40.940772" lon="-5.711501">
        <ele>855.406964</ele>
        <time>2022-05-28T16:14:43.000Z</time>
      </trkpt>
      <trkpt lat="40.937933" lon="-5.718008">
        <ele>856.303135</ele>
        <time>2022-05-28T16:15:46.000Z</time>
      </trkpt>
      <trkpt lat="40.937481" lon="-5.718869">
        <ele>856.855577</ele>
        <time>2022-05-28T16:15:55.000Z</time>
      </trkpt>
      <trkpt lat="40.937263" lon="-5.719152">
        <ele>857.390846</ele>
        <time>2022-05-28T16:15:58.000Z</time>
      </trkpt>
      <trkpt lat="40.937139" lon="-5.719308">
        <ele>857.670757</ele>
        <time>2022-05-28T16:16:00.000Z</time>
      </trkpt>
      <trkpt lat="40.937052" lon="-5.719405">
        <ele>857.873393</ele>
        <time>2022-05-28T16:16:01.000Z</time>
      </trkpt>
      <trkpt lat="40.935709" lon="-5.720944">
        <ele>862.967985</ele>
        <time>2022-05-28T16:16:21.000Z</time>
      </trkpt>
      <trkpt lat="40.932976" lon="-5.724882">
        <ele>878.913131</ele>
        <time>2022-05-28T16:17:06.000Z</time>
      </trkpt>
      <trkpt lat="40.93178" lon="-5.726943">
        <ele>882.792782</ele>
        <time>2022-05-28T16:17:28.000Z</time>
      </trkpt>
      <trkpt lat="40.931142" lon="-5.728226">
        <ele>885.483454</ele>
        <time>2022-05-28T16:17:41.000Z</time>
      </trkpt>
      <trkpt lat="40.930992" lon="-5.728556">
        <ele>886.255154</ele>
        <time>2022-05-28T16:17:44.000Z</time>
      </trkpt>
      <trkpt lat="40.930794" lon="-5.728993">
        <ele>887.298459</ele>
        <time>2022-05-28T16:17:48.000Z</time>
      </trkpt>
      <trkpt lat="40.930621" lon="-5.72935">
        <ele>888.170953</ele>
        <time>2022-05-28T16:17:52.000Z</time>
      </trkpt>
      <trkpt lat="40.928879" lon="-5.733259">
        <ele>901.561125</ele>
        <time>2022-05-28T16:18:30.000Z</time>
      </trkpt>
      <trkpt lat="40.928776" lon="-5.733464">
        <ele>902.043725</ele>
        <time>2022-05-28T16:18:32.000Z</time>
      </trkpt>
      <trkpt lat="40.928125" lon="-5.734892">
        <ele>900.711398</ele>
        <time>2022-05-28T16:18:46.000Z</time>
      </trkpt>
      <trkpt lat="40.928019" lon="-5.735133">
        <ele>900.486739</ele>
        <time>2022-05-28T16:18:48.000Z</time>
      </trkpt>
      <trkpt lat="40.927906" lon="-5.735335">
        <ele>900.293789</ele>
        <time>2022-05-28T16:18:50.000Z</time>
      </trkpt>
      <trkpt lat="40.927859" lon="-5.735423">
        <ele>900.201472</ele>
        <time>2022-05-28T16:18:51.000Z</time>
      </trkpt>
      <trkpt lat="40.927658" lon="-5.735786">
        <ele>899.440417</ele>
        <time>2022-05-28T16:18:55.000Z</time>
      </trkpt>
      <trkpt lat="40.926925" lon="-5.736957">
        <ele>896.807595</ele>
        <time>2022-05-28T16:19:08.000Z</time>
      </trkpt>
      <trkpt lat="40.9267" lon="-5.737321">
        <ele>896.015431</ele>
        <time>2022-05-28T16:19:12.000Z</time>
      </trkpt>
      <trkpt lat="40.926189" lon="-5.738175">
        <ele>894.893871</ele>
        <time>2022-05-28T16:19:21.000Z</time>
      </trkpt>
      <trkpt lat="40.925142" lon="-5.739928">
        <ele>891.391543</ele>
        <time>2022-05-28T16:19:40.000Z</time>
      </trkpt>
      <trkpt lat="40.923222" lon="-5.743134">
        <ele>880.183514</ele>
        <time>2022-05-28T16:20:14.000Z</time>
      </trkpt>
      <trkpt lat="40.916689" lon="-5.754054">
        <ele>846.015036</ele>
        <time>2022-05-28T16:22:11.000Z</time>
      </trkpt>
      <trkpt lat="40.914679" lon="-5.758313">
        <ele>840.039343</ele>
        <time>2022-05-28T16:22:53.000Z</time>
      </trkpt>
      <trkpt lat="40.911803" lon="-5.765076">
        <ele>833.386749</ele>
        <time>2022-05-28T16:23:58.000Z</time>
      </trkpt>
      <trkpt lat="40.909704" lon="-5.769653">
        <ele>827.113879</ele>
        <time>2022-05-28T16:24:43.000Z</time>
      </trkpt>
      <trkpt lat="40.90879" lon="-5.771599">
        <ele>825.267856</ele>
        <time>2022-05-28T16:25:02.000Z</time>
      </trkpt>
      <trkpt lat="40.905095" lon="-5.77713">
        <ele>817.472843</ele>
        <time>2022-05-28T16:26:04.000Z</time>
      </trkpt>
      <trkpt lat="40.904527" lon="-5.778045">
        <ele>816.981436</ele>
        <time>2022-05-28T16:26:14.000Z</time>
      </trkpt>
      <trkpt lat="40.90445" lon="-5.778163">
        <ele>817.032618</ele>
        <time>2022-05-28T16:26:15.000Z</time>
      </trkpt>
      <trkpt lat="40.9044" lon="-5.778233">
        <ele>817.07106</ele>
        <time>2022-05-28T16:26:16.000Z</time>
      </trkpt>
      <trkpt lat="40.90332" lon="-5.779838">
        <ele>817.833347</ele>
        <time>2022-05-28T16:26:34.000Z</time>
      </trkpt>
      <trkpt lat="40.90242" lon="-5.781388">
        <ele>818.620691</ele>
        <time>2022-05-28T16:26:50.000Z</time>
      </trkpt>
      <trkpt lat="40.902372" lon="-5.781462">
        <ele>818.653094</ele>
        <time>2022-05-28T16:26:51.000Z</time>
      </trkpt>
      <trkpt lat="40.901492" lon="-5.782971">
        <ele>819.288792</ele>
        <time>2022-05-28T16:27:07.000Z</time>
      </trkpt>
      <trkpt lat="40.901325" lon="-5.783246">
        <ele>819.405711</ele>
        <time>2022-05-28T16:27:10.000Z</time>
      </trkpt>
      <trkpt lat="40.900658" lon="-5.784519">
        <ele>820.010557</ele>
        <time>2022-05-28T16:27:23.000Z</time>
      </trkpt>
      <trkpt lat="40.898679" lon="-5.788618">
        <ele>822.419021</ele>
        <time>2022-05-28T16:28:04.000Z</time>
      </trkpt>
      <trkpt lat="40.894911" lon="-5.795357">
        <ele>827.235807</ele>
        <time>2022-05-28T16:29:14.000Z</time>
      </trkpt>
      <trkpt lat="40.89124" lon="-5.802815">
        <ele>835.617734</ele>
        <time>2022-05-28T16:30:29.000Z</time>
      </trkpt>
      <trkpt lat="40.889646" lon="-5.806">
        <ele>838.755634</ele>
        <time>2022-05-28T16:31:01.000Z</time>
      </trkpt>
      <trkpt lat="40.889497" lon="-5.806309">
        <ele>839.108706</ele>
        <time>2022-05-28T16:31:04.000Z</time>
      </trkpt>
      <trkpt lat="40.887942" lon="-5.809446">
        <ele>843.854123</ele>
        <time>2022-05-28T16:31:36.000Z</time>
      </trkpt>
      <trkpt lat="40.884537" lon="-5.814192">
        <ele>852.887968</ele>
        <time>2022-05-28T16:32:31.000Z</time>
      </trkpt>
      <trkpt lat="40.879842" lon="-5.821881">
        <ele>860.422548</ele>
        <time>2022-05-28T16:33:54.000Z</time>
      </trkpt>
      <trkpt lat="40.873846" lon="-5.831114">
        <ele>861.668003</ele>
        <time>2022-05-28T16:35:36.000Z</time>
      </trkpt>
      <trkpt lat="40.870266" lon="-5.835503">
        <ele>862.377983</ele>
        <time>2022-05-28T16:36:30.000Z</time>
      </trkpt>
      <trkpt lat="40.868902" lon="-5.837379">
        <ele>860.522046</ele>
        <time>2022-05-28T16:36:52.000Z</time>
      </trkpt>
      <trkpt lat="40.865715" lon="-5.841821">
        <ele>857.573678</ele>
        <time>2022-05-28T16:37:43.000Z</time>
      </trkpt>
      <trkpt lat="40.865614" lon="-5.841985">
        <ele>857.667375</ele>
        <time>2022-05-28T16:37:45.000Z</time>
      </trkpt>
      <trkpt lat="40.863348" lon="-5.845193">
        <ele>868.530413</ele>
        <time>2022-05-28T16:38:22.000Z</time>
      </trkpt>
      <trkpt lat="40.862975" lon="-5.845902">
        <ele>870.537918</ele>
        <time>2022-05-28T16:38:29.000Z</time>
      </trkpt>
      <trkpt lat="40.862404" lon="-5.847836">
        <ele>870.78606</ele>
        <time>2022-05-28T16:38:46.000Z</time>
      </trkpt>
      <trkpt lat="40.861119" lon="-5.852522">
        <ele>867.123897</ele>
        <time>2022-05-28T16:39:28.000Z</time>
      </trkpt>
      <trkpt lat="40.857838" lon="-5.859418">
        <ele>856.899074</ele>
        <time>2022-05-28T16:40:37.000Z</time>
      </trkpt>
      <trkpt lat="40.856674" lon="-5.8614">
        <ele>854.741329</ele>
        <time>2022-05-28T16:40:58.000Z</time>
      </trkpt>
      <trkpt lat="40.856058" lon="-5.862432">
        <ele>854.050239</ele>
        <time>2022-05-28T16:41:09.000Z</time>
      </trkpt>
      <trkpt lat="40.856687" lon="-5.8614">
        <ele>854.738296</ele>
        <time>2022-05-28T16:41:20.000Z</time>
      </trkpt>
      <trkpt lat="40.857848" lon="-5.859415">
        <ele>856.90245</ele>
        <time>2022-05-28T16:41:41.000Z</time>
      </trkpt>
      <trkpt lat="40.861122" lon="-5.852522">
        <ele>867.140619</ele>
        <time>2022-05-28T16:42:49.000Z</time>
      </trkpt>
      <trkpt lat="40.862396" lon="-5.847841">
        <ele>870.818871</ele>
        <time>2022-05-28T16:43:31.000Z</time>
      </trkpt>
      <trkpt lat="40.862963" lon="-5.845887">
        <ele>870.558577</ele>
        <time>2022-05-28T16:43:49.000Z</time>
      </trkpt>
      <trkpt lat="40.86335" lon="-5.845204">
        <ele>868.579561</ele>
        <time>2022-05-28T16:43:56.000Z</time>
      </trkpt>
      <trkpt lat="40.865614" lon="-5.841993">
        <ele>857.809824</ele>
        <time>2022-05-28T16:44:33.000Z</time>
      </trkpt>
      <trkpt lat="40.865731" lon="-5.841831">
        <ele>857.864672</ele>
        <time>2022-05-28T16:44:35.000Z</time>
      </trkpt>
      <trkpt lat="40.868909" lon="-5.837363">
        <ele>860.52246</ele>
        <time>2022-05-28T16:45:27.000Z</time>
      </trkpt>
      <trkpt lat="40.870259" lon="-5.835504">
        <ele>862.345392</ele>
        <time>2022-05-28T16:45:49.000Z</time>
      </trkpt>
      <trkpt lat="40.873833" lon="-5.831111">
        <ele>861.657864</ele>
        <time>2022-05-28T16:46:43.000Z</time>
      </trkpt>
      <trkpt lat="40.87985" lon="-5.82188">
        <ele>860.457382</ele>
        <time>2022-05-28T16:48:25.000Z</time>
      </trkpt>
      <trkpt lat="40.884549" lon="-5.814198">
        <ele>852.871592</ele>
        <time>2022-05-28T16:49:48.000Z</time>
      </trkpt>
      <trkpt lat="40.887951" lon="-5.809441">
        <ele>843.847134</ele>
        <time>2022-05-28T16:50:43.000Z</time>
      </trkpt>
      <trkpt lat="40.889492" lon="-5.806314">
        <ele>839.095409</ele>
        <time>2022-05-28T16:51:14.000Z</time>
      </trkpt>
      <trkpt lat="40.889645" lon="-5.805987">
        <ele>838.748827</ele>
        <time>2022-05-28T16:51:17.000Z</time>
      </trkpt>
      <trkpt lat="40.891227" lon="-5.802824">
        <ele>835.62469</ele>
        <time>2022-05-28T16:51:49.000Z</time>
      </trkpt>
      <trkpt lat="40.894911" lon="-5.795364">
        <ele>827.212273</ele>
        <time>2022-05-28T16:53:04.000Z</time>
      </trkpt>
      <trkpt lat="40.898677" lon="-5.788629">
        <ele>822.418311</ele>
        <time>2022-05-28T16:54:14.000Z</time>
      </trkpt>
      <trkpt lat="40.900657" lon="-5.784526">
        <ele>820.007329</ele>
        <time>2022-05-28T16:54:55.000Z</time>
      </trkpt>
      <trkpt lat="40.901322" lon="-5.783238">
        <ele>819.409785</ele>
        <time>2022-05-28T16:55:08.000Z</time>
      </trkpt>
      <trkpt lat="40.901491" lon="-5.782962">
        <ele>819.289922</ele>
        <time>2022-05-28T16:55:11.000Z</time>
      </trkpt>
      <trkpt lat="40.902379" lon="-5.781461">
        <ele>818.650614</ele>
        <time>2022-05-28T16:55:27.000Z</time>
      </trkpt>
      <trkpt lat="40.902429" lon="-5.781395">
        <ele>818.61868</ele>
        <time>2022-05-28T16:55:28.000Z</time>
      </trkpt>
      <trkpt lat="40.903323" lon="-5.779845">
        <ele>817.829598</ele>
        <time>2022-05-28T16:55:44.000Z</time>
      </trkpt>
      <trkpt lat="40.904404" lon="-5.778245">
        <ele>817.095536</ele>
        <time>2022-05-28T16:56:02.000Z</time>
      </trkpt>
      <trkpt lat="40.904447" lon="-5.778149">
        <ele>817.059435</ele>
        <time>2022-05-28T16:56:03.000Z</time>
      </trkpt>
      <trkpt lat="40.904515" lon="-5.778042">
        <ele>817.011399</ele>
        <time>2022-05-28T16:56:04.000Z</time>
      </trkpt>
      <trkpt lat="40.905106" lon="-5.777144">
        <ele>817.577514</ele>
        <time>2022-05-28T16:56:14.000Z</time>
      </trkpt>
      <trkpt lat="40.908781" lon="-5.771592">
        <ele>825.280888</ele>
        <time>2022-05-28T16:57:16.000Z</time>
      </trkpt>
      <trkpt lat="40.909707" lon="-5.769644">
        <ele>827.271137</ele>
        <time>2022-05-28T16:57:35.000Z</time>
      </trkpt>
      <trkpt lat="40.911818" lon="-5.765088">
        <ele>833.467085</ele>
        <time>2022-05-28T16:58:20.000Z</time>
      </trkpt>
      <trkpt lat="40.914684" lon="-5.758304">
        <ele>840.043212</ele>
        <time>2022-05-28T16:59:25.000Z</time>
      </trkpt>
      <trkpt lat="40.916684" lon="-5.754059">
        <ele>846.018068</ele>
        <time>2022-05-28T17:00:07.000Z</time>
      </trkpt>
      <trkpt lat="40.923229" lon="-5.743129">
        <ele>880.170964</ele>
        <time>2022-05-28T17:02:04.000Z</time>
      </trkpt>
      <trkpt lat="40.925143" lon="-5.739923">
        <ele>891.375187</ele>
        <time>2022-05-28T17:02:38.000Z</time>
      </trkpt>
      <trkpt lat="40.926193" lon="-5.738182">
        <ele>894.911239</ele>
        <time>2022-05-28T17:02:57.000Z</time>
      </trkpt>
      <trkpt lat="40.926704" lon="-5.737319">
        <ele>896.025922</ele>
        <time>2022-05-28T17:03:06.000Z</time>
      </trkpt>
      <trkpt lat="40.926933" lon="-5.736956">
        <ele>896.769438</ele>
        <time>2022-05-28T17:03:10.000Z</time>
      </trkpt>
      <trkpt lat="40.927651" lon="-5.735776">
        <ele>899.464245</ele>
        <time>2022-05-28T17:03:23.000Z</time>
      </trkpt>
      <trkpt lat="40.927886" lon="-5.735288">
        <ele>900.42999</ele>
        <time>2022-05-28T17:03:28.000Z</time>
      </trkpt>
      <trkpt lat="40.927876" lon="-5.735207">
        <ele>900.480485</ele>
        <time>2022-05-28T17:03:29.000Z</time>
      </trkpt>
      <trkpt lat="40.92797" lon="-5.735118">
        <ele>900.590934</ele>
        <time>2022-05-28T17:03:30.000Z</time>
      </trkpt>
      <trkpt lat="40.928128" lon="-5.734904">
        <ele>900.800781</ele>
        <time>2022-05-28T17:03:33.000Z</time>
      </trkpt>
      <trkpt lat="40.928787" lon="-5.733455">
        <ele>901.959057</ele>
        <time>2022-05-28T17:03:47.000Z</time>
      </trkpt>
      <trkpt lat="40.928879" lon="-5.733253">
        <ele>901.651436</ele>
        <time>2022-05-28T17:03:49.000Z</time>
      </trkpt>
      <trkpt lat="40.930624" lon="-5.72935">
        <ele>888.18578</ele>
        <time>2022-05-28T17:04:27.000Z</time>
      </trkpt>
      <trkpt lat="40.930786" lon="-5.728997">
        <ele>887.261575</ele>
        <time>2022-05-28T17:04:30.000Z</time>
      </trkpt>
      <trkpt lat="40.930999" lon="-5.728556">
        <ele>886.239203</ele>
        <time>2022-05-28T17:04:34.000Z</time>
      </trkpt>
      <trkpt lat="40.931138" lon="-5.728228">
        <ele>885.482971</ele>
        <time>2022-05-28T17:04:37.000Z</time>
      </trkpt>
      <trkpt lat="40.931787" lon="-5.72694">
        <ele>882.78481</ele>
        <time>2022-05-28T17:04:50.000Z</time>
      </trkpt>
      <trkpt lat="40.932981" lon="-5.72489">
        <ele>878.950697</ele>
        <time>2022-05-28T17:05:12.000Z</time>
      </trkpt>
      <trkpt lat="40.935712" lon="-5.72094">
        <ele>862.567812</ele>
        <time>2022-05-28T17:05:57.000Z</time>
      </trkpt>
      <trkpt lat="40.937041" lon="-5.719403">
        <ele>857.876705</ele>
        <time>2022-05-28T17:06:17.000Z</time>
      </trkpt>
      <trkpt lat="40.937128" lon="-5.719296">
        <ele>857.680072</ele>
        <time>2022-05-28T17:06:18.000Z</time>
      </trkpt>
      <trkpt lat="40.937265" lon="-5.719168">
        <ele>857.408464</ele>
        <time>2022-05-28T17:06:20.000Z</time>
      </trkpt>
      <trkpt lat="40.937482" lon="-5.718866">
        <ele>856.889088</ele>
        <time>2022-05-28T17:06:24.000Z</time>
      </trkpt>
      <trkpt lat="40.937938" lon="-5.718009">
        <ele>856.326509</ele>
        <time>2022-05-28T17:06:33.000Z</time>
      </trkpt>
      <trkpt lat="40.940768" lon="-5.711488">
        <ele>855.412947</ele>
        <time>2022-05-28T17:07:36.000Z</time>
      </trkpt>
      <trkpt lat="40.941423" lon="-5.709709">
        <ele>853.400497</ele>
        <time>2022-05-28T17:07:53.000Z</time>
      </trkpt>
      <trkpt lat="40.941873" lon="-5.708291">
        <ele>850.914759</ele>
        <time>2022-05-28T17:08:06.000Z</time>
      </trkpt>
      <trkpt lat="40.942468" lon="-5.706084">
        <ele>846.306129</ele>
        <time>2022-05-28T17:08:26.000Z</time>
      </trkpt>
      <trkpt lat="40.943584" lon="-5.701044">
        <ele>832.064284</ele>
        <time>2022-05-28T17:09:10.000Z</time>
      </trkpt>
      <trkpt lat="40.943719" lon="-5.700424">
        <ele>830.486345</ele>
        <time>2022-05-28T17:09:15.000Z</time>
      </trkpt>
      <trkpt lat="40.943782" lon="-5.700129">
        <ele>829.751341</ele>
        <time>2022-05-28T17:09:18.000Z</time>
      </trkpt>
      <trkpt lat="40.944297" lon="-5.697848">
        <ele>824.951524</ele>
        <time>2022-05-28T17:09:38.000Z</time>
      </trkpt>
      <trkpt lat="40.94474" lon="-5.6959">
        <ele>821.971311</ele>
        <time>2022-05-28T17:09:55.000Z</time>
      </trkpt>
      <trkpt lat="40.944878" lon="-5.695332">
        <ele>821.132785</ele>
        <time>2022-05-28T17:10:00.000Z</time>
      </trkpt>
      <trkpt lat="40.945001" lon="-5.695044">
        <ele>820.663231</ele>
        <time>2022-05-28T17:10:03.000Z</time>
      </trkpt>
      <trkpt lat="40.945527" lon="-5.694038">
        <ele>818.669969</ele>
        <time>2022-05-28T17:10:13.000Z</time>
      </trkpt>
      <trkpt lat="40.945971" lon="-5.69287">
        <ele>816.115349</ele>
        <time>2022-05-28T17:10:24.000Z</time>
      </trkpt>
      <trkpt lat="40.946021" lon="-5.692735">
        <ele>815.823144</ele>
        <time>2022-05-28T17:10:25.000Z</time>
      </trkpt>
      <trkpt lat="40.946114" lon="-5.692495">
        <ele>815.279893</ele>
        <time>2022-05-28T17:10:27.000Z</time>
      </trkpt>
      <trkpt lat="40.948301" lon="-5.686651">
        <ele>808.077644</ele>
        <time>2022-05-28T17:11:22.000Z</time>
      </trkpt>
      <trkpt lat="40.948556" lon="-5.686024">
        <ele>807.499865</ele>
        <time>2022-05-28T17:11:28.000Z</time>
      </trkpt>
      <trkpt lat="40.948652" lon="-5.685871">
        <ele>807.446324</ele>
        <time>2022-05-28T17:11:30.000Z</time>
      </trkpt>
      <trkpt lat="40.94869" lon="-5.685815">
        <ele>807.424189</ele>
        <time>2022-05-28T17:11:31.000Z</time>
      </trkpt>
      <trkpt lat="40.948781" lon="-5.685649">
        <ele>807.361875</ele>
        <time>2022-05-28T17:11:33.000Z</time>
      </trkpt>
      <trkpt lat="40.949793" lon="-5.684168">
        <ele>806.675001</ele>
        <time>2022-05-28T17:11:50.000Z</time>
      </trkpt>
      <trkpt lat="40.949868" lon="-5.684075">
        <ele>806.461243</ele>
        <time>2022-05-28T17:11:51.000Z</time>
      </trkpt>
      <trkpt lat="40.950546" lon="-5.683073">
        <ele>804.448617</ele>
        <time>2022-05-28T17:12:02.000Z</time>
      </trkpt>
      <trkpt lat="40.9506" lon="-5.682973">
        <ele>804.255108</ele>
        <time>2022-05-28T17:12:03.000Z</time>
      </trkpt>
      <trkpt lat="40.95145" lon="-5.681752">
        <ele>801.102055</ele>
        <time>2022-05-28T17:12:17.000Z</time>
      </trkpt>
      <trkpt lat="40.951491" lon="-5.681696">
        <ele>800.890723</ele>
        <time>2022-05-28T17:12:18.000Z</time>
      </trkpt>
      <trkpt lat="40.951926" lon="-5.681283">
        <ele>799.381498</ele>
        <time>2022-05-28T17:12:24.000Z</time>
      </trkpt>
      <trkpt lat="40.952966" lon="-5.680385">
        <ele>795.215037</ele>
        <time>2022-05-28T17:12:38.000Z</time>
      </trkpt>
      <trkpt lat="40.953029" lon="-5.680329">
        <ele>794.952511</ele>
        <time>2022-05-28T17:12:39.000Z</time>
      </trkpt>
      <trkpt lat="40.953314" lon="-5.680114">
        <ele>793.763432</ele>
        <time>2022-05-28T17:12:43.000Z</time>
      </trkpt>
      <trkpt lat="40.953486" lon="-5.679976">
        <ele>793.093236</ele>
        <time>2022-05-28T17:12:45.000Z</time>
      </trkpt>
      <trkpt lat="40.953754" lon="-5.679755">
        <ele>791.897819</ele>
        <time>2022-05-28T17:12:49.000Z</time>
      </trkpt>
      <trkpt lat="40.953828" lon="-5.679696">
        <ele>791.63357</ele>
        <time>2022-05-28T17:12:50.000Z</time>
      </trkpt>
      <trkpt lat="40.954007" lon="-5.679546">
        <ele>790.668067</ele>
        <time>2022-05-28T17:12:52.000Z</time>
      </trkpt>
      <trkpt lat="40.954382" lon="-5.679223">
        <ele>788.556614</ele>
        <time>2022-05-28T17:12:57.000Z</time>
      </trkpt>
      <trkpt lat="40.95452" lon="-5.679016">
        <ele>787.63632</ele>
        <time>2022-05-28T17:12:59.000Z</time>
      </trkpt>
      <trkpt lat="40.954642" lon="-5.678641">
        <ele>786.16238</ele>
        <time>2022-05-28T17:13:02.000Z</time>
      </trkpt>
      <trkpt lat="40.954673" lon="-5.678297">
        <ele>784.969246</ele>
        <time>2022-05-28T17:13:05.000Z</time>
      </trkpt>
      <trkpt lat="40.95461" lon="-5.677785">
        <ele>783.161696</ele>
        <time>2022-05-28T17:13:09.000Z</time>
      </trkpt>
      <trkpt lat="40.954613" lon="-5.677758">
        <ele>783.07006</ele>
        <time>2022-05-28T17:13:09.000Z</time>
      </trkpt>
      <trkpt lat="40.954521" lon="-5.677353">
        <ele>781.874714</ele>
        <time>2022-05-28T17:13:13.000Z</time>
      </trkpt>
      <trkpt lat="40.954366" lon="-5.676715">
        <ele>779.933608</ele>
        <time>2022-05-28T17:13:19.000Z</time>
      </trkpt>
      <trkpt lat="40.954326" lon="-5.67661">
        <ele>779.594266</ele>
        <time>2022-05-28T17:13:20.000Z</time>
      </trkpt>
      <trkpt lat="40.954319" lon="-5.676441">
        <ele>779.114535</ele>
        <time>2022-05-28T17:13:21.000Z</time>
      </trkpt>
      <trkpt lat="40.954376" lon="-5.676342">
        <ele>778.72616</ele>
        <time>2022-05-28T17:13:22.000Z</time>
      </trkpt>
      <trkpt lat="40.954449" lon="-5.676331">
        <ele>778.470151</ele>
        <time>2022-05-28T17:13:23.000Z</time>
      </trkpt>
      <trkpt lat="40.954492" lon="-5.676332">
        <ele>778.336329</ele>
        <time>2022-05-28T17:13:23.000Z</time>
      </trkpt>
      <trkpt lat="40.954613" lon="-5.676293">
        <ele>777.831717</ele>
        <time>2022-05-28T17:13:24.000Z</time>
      </trkpt>
      <trkpt lat="40.954627" lon="-5.676284">
        <ele>777.76199</ele>
        <time>2022-05-28T17:13:24.000Z</time>
      </trkpt>
      <trkpt lat="40.954898" lon="-5.676083">
        <ele>776.595934</ele>
        <time>2022-05-28T17:13:27.000Z</time>
      </trkpt>
      <trkpt lat="40.954929" lon="-5.67603">
        <ele>776.404551</ele>
        <time>2022-05-28T17:13:28.000Z</time>
      </trkpt>
      <trkpt lat="40.955014" lon="-5.67595">
        <ele>776.224467</ele>
        <time>2022-05-28T17:13:29.000Z</time>
      </trkpt>
      <trkpt lat="40.955134" lon="-5.675967">
        <ele>776.043817</ele>
        <time>2022-05-28T17:13:30.000Z</time>
      </trkpt>
      <trkpt lat="40.955213" lon="-5.676107">
        <ele>775.82328</ele>
        <time>2022-05-28T17:13:31.000Z</time>
      </trkpt>
      <trkpt lat="40.955401" lon="-5.676199">
        <ele>775.512392</ele>
        <time>2022-05-28T17:13:33.000Z</time>
      </trkpt>
      <trkpt lat="40.955397" lon="-5.676146">
        <ele>775.437742</ele>
        <time>2022-05-28T17:13:33.000Z</time>
      </trkpt>
      <trkpt lat="40.955411" lon="-5.676121">
        <ele>775.415538</ele>
        <time>2022-05-28T17:13:33.000Z</time>
      </trkpt>
      <trkpt lat="40.955655" lon="-5.676134">
        <ele>775.015761</ele>
        <time>2022-05-28T17:13:36.000Z</time>
      </trkpt>
      <trkpt lat="40.955897" lon="-5.67615">
        <ele>774.628921</ele>
        <time>2022-05-28T17:13:39.000Z</time>
      </trkpt>
      <trkpt lat="40.955899" lon="-5.676219">
        <ele>774.553201</ele>
        <time>2022-05-28T17:13:40.000Z</time>
      </trkpt>
      <trkpt lat="40.956616" lon="-5.676153">
        <ele>773.481168</ele>
        <time>2022-05-28T17:13:48.000Z</time>
      </trkpt>
      <trkpt lat="40.956938" lon="-5.676046">
        <ele>773.414596</ele>
        <time>2022-05-28T17:13:52.000Z</time>
      </trkpt>
      <trkpt lat="40.95734" lon="-5.67579">
        <ele>773.325407</ele>
        <time>2022-05-28T17:13:57.000Z</time>
      </trkpt>
      <trkpt lat="40.957494" lon="-5.675656">
        <ele>773.289254</ele>
        <time>2022-05-28T17:13:59.000Z</time>
      </trkpt>
      <trkpt lat="40.957626" lon="-5.675417">
        <ele>773.243723</ele>
        <time>2022-05-28T17:14:01.000Z</time>
      </trkpt>
      <trkpt lat="40.957649" lon="-5.67519">
        <ele>773.210044</ele>
        <time>2022-05-28T17:14:03.000Z</time>
      </trkpt>
      <trkpt lat="40.957628" lon="-5.674985">
        <ele>773.177812</ele>
        <time>2022-05-28T17:14:05.000Z</time>
      </trkpt>
      <trkpt lat="40.957485" lon="-5.674675">
        <ele>773.15705</ele>
        <time>2022-05-28T17:14:08.000Z</time>
      </trkpt>
      <trkpt lat="40.957299" lon="-5.674302">
        <ele>773.247568</ele>
        <time>2022-05-28T17:14:12.000Z</time>
      </trkpt>
      <trkpt lat="40.957187" lon="-5.67408">
        <ele>773.305896</ele>
        <time>2022-05-28T17:14:14.000Z</time>
      </trkpt>
      <trkpt lat="40.956839" lon="-5.673437">
        <ele>773.464066</ele>
        <time>2022-05-28T17:14:21.000Z</time>
      </trkpt>
      <trkpt lat="40.956372" lon="-5.672319">
        <ele>773.606984</ele>
        <time>2022-05-28T17:14:32.000Z</time>
      </trkpt>
      <trkpt lat="40.956314" lon="-5.672169">
        <ele>773.599134</ele>
        <time>2022-05-28T17:14:33.000Z</time>
      </trkpt>
      <trkpt lat="40.956219" lon="-5.671917">
        <ele>773.588267</ele>
        <time>2022-05-28T17:14:35.000Z</time>
      </trkpt>
      <trkpt lat="40.956139" lon="-5.671679">
        <ele>773.57749</ele>
        <time>2022-05-28T17:14:37.000Z</time>
      </trkpt>
      <trkpt lat="40.956112" lon="-5.671578">
        <ele>773.572585</ele>
        <time>2022-05-28T17:14:38.000Z</time>
      </trkpt>
      <trkpt lat="40.95611" lon="-5.671437">
        <ele>773.56635</ele>
        <time>2022-05-28T17:14:39.000Z</time>
      </trkpt>
      <trkpt lat="40.956201" lon="-5.671507">
        <ele>773.560057</ele>
        <time>2022-05-28T17:14:40.000Z</time>
      </trkpt>
      <trkpt lat="40.956238" lon="-5.67163">
        <ele>773.554541</ele>
        <time>2022-05-28T17:14:41.000Z</time>
      </trkpt>
      <trkpt lat="40.9564" lon="-5.672112">
        <ele>773.532822</ele>
        <time>2022-05-28T17:14:45.000Z</time>
      </trkpt>
      <trkpt lat="40.956668" lon="-5.672751">
        <ele>773.442541</ele>
        <time>2022-05-28T17:14:51.000Z</time>
      </trkpt>
      <trkpt lat="40.957117" lon="-5.673681">
        <ele>773.288657</ele>
        <time>2022-05-28T17:15:00.000Z</time>
      </trkpt>
      <trkpt lat="40.957244" lon="-5.673934">
        <ele>773.246083</ele>
        <time>2022-05-28T17:15:03.000Z</time>
      </trkpt>
      <trkpt lat="40.957243" lon="-5.673946">
        <ele>773.246088</ele>
        <time>2022-05-28T17:15:03.000Z</time>
      </trkpt>
      <trkpt lat="40.957406" lon="-5.674247">
        <ele>773.198364</ele>
        <time>2022-05-28T17:15:06.000Z</time>
      </trkpt>
      <trkpt lat="40.957584" lon="-5.674582">
        <ele>773.211453</ele>
        <time>2022-05-28T17:15:09.000Z</time>
      </trkpt>
      <trkpt lat="40.957604" lon="-5.674606">
        <ele>773.212541</ele>
        <time>2022-05-28T17:15:09.000Z</time>
      </trkpt>
      <trkpt lat="40.957706" lon="-5.674808">
        <ele>773.220428</ele>
        <time>2022-05-28T17:15:11.000Z</time>
      </trkpt>
      <trkpt lat="40.957804" lon="-5.674897">
        <ele>773.225346</ele>
        <time>2022-05-28T17:15:12.000Z</time>
      </trkpt>
      <trkpt lat="40.957797" lon="-5.674902">
        <ele>773.225402</ele>
        <time>2022-05-28T17:15:12.000Z</time>
      </trkpt>
      <trkpt lat="40.957791" lon="-5.674902">
        <ele>773.225415</ele>
        <time>2022-05-28T17:15:12.000Z</time>
      </trkpt>
      <trkpt lat="40.957807" lon="-5.674894">
        <ele>773.225413</ele>
        <time>2022-05-28T17:15:12.000Z</time>
      </trkpt>
      <trkpt lat="40.95769" lon="-5.675153">
        <ele>773.23512</ele>
        <time>2022-05-28T17:15:15.000Z</time>
      </trkpt>
      <trkpt lat="40.95769" lon="-5.675163">
        <ele>773.235113</ele>
        <time>2022-05-28T17:15:15.000Z</time>
      </trkpt>
      <trkpt lat="40.957641" lon="-5.675473">
        <ele>773.245624</ele>
        <time>2022-05-28T17:15:18.000Z</time>
      </trkpt>
      <trkpt lat="40.957644" lon="-5.675482">
        <ele>773.245641</ele>
        <time>2022-05-28T17:15:18.000Z</time>
      </trkpt>
      <trkpt lat="40.957434" lon="-5.675875">
        <ele>773.261305</ele>
        <time>2022-05-28T17:15:22.000Z</time>
      </trkpt>
      <trkpt lat="40.95739" lon="-5.675894">
        <ele>773.262963</ele>
        <time>2022-05-28T17:15:23.000Z</time>
      </trkpt>
      <trkpt lat="40.957214" lon="-5.676011">
        <ele>773.271716</ele>
        <time>2022-05-28T17:15:25.000Z</time>
      </trkpt>
      <trkpt lat="40.956821" lon="-5.676219">
        <ele>773.687761</ele>
        <time>2022-05-28T17:15:30.000Z</time>
      </trkpt>
      <trkpt lat="40.956377" lon="-5.676325">
        <ele>774.232555</ele>
        <time>2022-05-28T17:15:35.000Z</time>
      </trkpt>
      <trkpt lat="40.955702" lon="-5.676319">
        <ele>775.01445</ele>
        <time>2022-05-28T17:15:43.000Z</time>
      </trkpt>
      <trkpt lat="40.955389" lon="-5.676325">
        <ele>775.382513</ele>
        <time>2022-05-28T17:15:46.000Z</time>
      </trkpt>
      <trkpt lat="40.955183" lon="-5.676314">
        <ele>776.096246</ele>
        <time>2022-05-28T17:15:48.000Z</time>
      </trkpt>
      <trkpt lat="40.955106" lon="-5.676394">
        <ele>776.417603</ele>
        <time>2022-05-28T17:15:49.000Z</time>
      </trkpt>
      <trkpt lat="40.954967" lon="-5.676367">
        <ele>776.896177</ele>
        <time>2022-05-28T17:15:51.000Z</time>
      </trkpt>
      <trkpt lat="40.954931" lon="-5.676308">
        <ele>777.119535</ele>
        <time>2022-05-28T17:15:52.000Z</time>
      </trkpt>
      <trkpt lat="40.954635" lon="-5.676298">
        <ele>778.148177</ele>
        <time>2022-05-28T17:15:55.000Z</time>
      </trkpt>
      <trkpt lat="40.954615" lon="-5.676295">
        <ele>778.212607</ele>
        <time>2022-05-28T17:15:55.000Z</time>
      </trkpt>
      <trkpt lat="40.954479" lon="-5.676334">
        <ele>778.678827</ele>
        <time>2022-05-28T17:15:57.000Z</time>
      </trkpt>
      <trkpt lat="40.954451" lon="-5.676326">
        <ele>778.802479</ele>
        <time>2022-05-28T17:15:57.000Z</time>
      </trkpt>
      <trkpt lat="40.954364" lon="-5.676459">
        <ele>779.238018</ele>
        <time>2022-05-28T17:15:58.000Z</time>
      </trkpt>
      <trkpt lat="40.954359" lon="-5.676635">
        <ele>779.726681</ele>
        <time>2022-05-28T17:15:59.000Z</time>
      </trkpt>
      <trkpt lat="40.954357" lon="-5.676721">
        <ele>779.920624</ele>
        <time>2022-05-28T17:16:00.000Z</time>
      </trkpt>
      <trkpt lat="40.954607" lon="-5.677759">
        <ele>783.193275</ele>
        <time>2022-05-28T17:16:09.000Z</time>
      </trkpt>
      <trkpt lat="40.95462" lon="-5.67778">
        <ele>783.30624</ele>
        <time>2022-05-28T17:16:09.000Z</time>
      </trkpt>
      <trkpt lat="40.954691" lon="-5.678304">
        <ele>785.142447</ele>
        <time>2022-05-28T17:16:13.000Z</time>
      </trkpt>
      <trkpt lat="40.954648" lon="-5.67864">
        <ele>786.344931</ele>
        <time>2022-05-28T17:16:16.000Z</time>
      </trkpt>
      <trkpt lat="40.954527" lon="-5.679033">
        <ele>787.830419</ele>
        <time>2022-05-28T17:16:20.000Z</time>
      </trkpt>
      <trkpt lat="40.954394" lon="-5.679227">
        <ele>788.757949</ele>
        <time>2022-05-28T17:16:22.000Z</time>
      </trkpt>
      <trkpt lat="40.954002" lon="-5.679547">
        <ele>790.730717</ele>
        <time>2022-05-28T17:16:27.000Z</time>
      </trkpt>
      <trkpt lat="40.953834" lon="-5.679705">
        <ele>791.526438</ele>
        <time>2022-05-28T17:16:29.000Z</time>
      </trkpt>
      <trkpt lat="40.953758" lon="-5.679752">
        <ele>791.803401</ele>
        <time>2022-05-28T17:16:30.000Z</time>
      </trkpt>
      <trkpt lat="40.953473" lon="-5.679985">
        <ele>793.056331</ele>
        <time>2022-05-28T17:16:34.000Z</time>
      </trkpt>
      <trkpt lat="40.953312" lon="-5.680107">
        <ele>793.758732</ele>
        <time>2022-05-28T17:16:36.000Z</time>
      </trkpt>
      <trkpt lat="40.953035" lon="-5.680328">
        <ele>795.00502</ele>
        <time>2022-05-28T17:16:40.000Z</time>
      </trkpt>
      <trkpt lat="40.95297" lon="-5.680377">
        <ele>795.280168</ele>
        <time>2022-05-28T17:16:41.000Z</time>
      </trkpt>
      <trkpt lat="40.951921" lon="-5.681295">
        <ele>799.344959</ele>
        <time>2022-05-28T17:16:55.000Z</time>
      </trkpt>
      <trkpt lat="40.951507" lon="-5.681695">
        <ele>800.894895</ele>
        <time>2022-05-28T17:17:01.000Z</time>
      </trkpt>
      <trkpt lat="40.951453" lon="-5.68176">
        <ele>801.111928</ele>
        <time>2022-05-28T17:17:02.000Z</time>
      </trkpt>
      <trkpt lat="40.950614" lon="-5.682971">
        <ele>804.246509</ele>
        <time>2022-05-28T17:17:16.000Z</time>
      </trkpt>
      <trkpt lat="40.950534" lon="-5.683082">
        <ele>804.47195</ele>
        <time>2022-05-28T17:17:17.000Z</time>
      </trkpt>
      <trkpt lat="40.949866" lon="-5.68407">
        <ele>806.491955</ele>
        <time>2022-05-28T17:17:28.000Z</time>
      </trkpt>
      <trkpt lat="40.949786" lon="-5.684183">
        <ele>806.553201</ele>
        <time>2022-05-28T17:17:29.000Z</time>
      </trkpt>
      <trkpt lat="40.948779" lon="-5.68565">
        <ele>807.406577</ele>
        <time>2022-05-28T17:17:46.000Z</time>
      </trkpt>
      <trkpt lat="40.948676" lon="-5.685805">
        <ele>807.591348</ele>
        <time>2022-05-28T17:17:48.000Z</time>
      </trkpt>
      <trkpt lat="40.948644" lon="-5.685865">
        <ele>807.658389</ele>
        <time>2022-05-28T17:17:49.000Z</time>
      </trkpt>
      <trkpt lat="40.948559" lon="-5.686026">
        <ele>807.820489</ele>
        <time>2022-05-28T17:17:51.000Z</time>
      </trkpt>
      <trkpt lat="40.948293" lon="-5.686645">
        <ele>808.461162</ele>
        <time>2022-05-28T17:17:57.000Z</time>
      </trkpt>
      <trkpt lat="40.946118" lon="-5.692493">
        <ele>815.44633</ele>
        <time>2022-05-28T17:18:52.000Z</time>
      </trkpt>
      <trkpt lat="40.94603" lon="-5.692738">
        <ele>815.960397</ele>
        <time>2022-05-28T17:18:54.000Z</time>
      </trkpt>
      <trkpt lat="40.945968" lon="-5.692878">
        <ele>816.236907</ele>
        <time>2022-05-28T17:18:55.000Z</time>
      </trkpt>
      <trkpt lat="40.945516" lon="-5.69403">
        <ele>818.654247</ele>
        <time>2022-05-28T17:19:06.000Z</time>
      </trkpt>
      <trkpt lat="40.945005" lon="-5.695046">
        <ele>820.589208</ele>
        <time>2022-05-28T17:19:16.000Z</time>
      </trkpt>
      <trkpt lat="40.944879" lon="-5.695322">
        <ele>821.123299</ele>
        <time>2022-05-28T17:19:19.000Z</time>
      </trkpt>
      <trkpt lat="40.944734" lon="-5.695907">
        <ele>822.07706</ele>
        <time>2022-05-28T17:19:24.000Z</time>
      </trkpt>
      <trkpt lat="40.944293" lon="-5.697847">
        <ele>824.866741</ele>
        <time>2022-05-28T17:19:41.000Z</time>
      </trkpt>
      <trkpt lat="40.943796" lon="-5.700132">
        <ele>829.717807</ele>
        <time>2022-05-28T17:20:01.000Z</time>
      </trkpt>
      <trkpt lat="40.943719" lon="-5.70042">
        <ele>830.406006</ele>
        <time>2022-05-28T17:20:04.000Z</time>
      </trkpt>
      <trkpt lat="40.94359" lon="-5.701035">
        <ele>832.022399</ele>
        <time>2022-05-28T17:20:09.000Z</time>
      </trkpt>
      <trkpt lat="40.942452" lon="-5.706073">
        <ele>846.171236</ele>
        <time>2022-05-28T17:20:53.000Z</time>
      </trkpt>
      <trkpt lat="40.941862" lon="-5.708292">
        <ele>850.878674</ele>
        <time>2022-05-28T17:21:13.000Z</time>
      </trkpt>
      <trkpt lat="40.941419" lon="-5.709712">
        <ele>853.471125</ele>
        <time>2022-05-28T17:21:26.000Z</time>
      </trkpt>
      <trkpt lat="40.940776" lon="-5.711498">
        <ele>855.54604</ele>
        <time>2022-05-28T17:21:43.000Z</time>
      </trkpt>
      <trkpt lat="40.937932" lon="-5.718017">
        <ele>856.21068</ele>
        <time>2022-05-28T17:22:46.000Z</time>
      </trkpt>
      <trkpt lat="40.937488" lon="-5.718866">
        <ele>857.057499</ele>
        <time>2022-05-28T17:22:55.000Z</time>
      </trkpt>
      <trkpt lat="40.937268" lon="-5.719161">
        <ele>857.444703</ele>
        <time>2022-05-28T17:22:58.000Z</time>
      </trkpt>
      <trkpt lat="40.937128" lon="-5.719308">
        <ele>857.64718</ele>
        <time>2022-05-28T17:23:00.000Z</time>
      </trkpt>
      <trkpt lat="40.937037" lon="-5.719404">
        <ele>857.793779</ele>
        <time>2022-05-28T17:23:01.000Z</time>
      </trkpt>
      <trkpt lat="40.935708" lon="-5.720943">
        <ele>862.494183</ele>
        <time>2022-05-28T17:23:21.000Z</time>
      </trkpt>
      <trkpt lat="40.93298" lon="-5.724891">
        <ele>879.351747</ele>
        <time>2022-05-28T17:24:06.000Z</time>
      </trkpt>
      <trkpt lat="40.931784" lon="-5.726948">
        <ele>882.825626</ele>
        <time>2022-05-28T17:24:28.000Z</time>
      </trkpt>
      <trkpt lat="40.931133" lon="-5.72822">
        <ele>885.368039</ele>
        <time>2022-05-28T17:24:41.000Z</time>
      </trkpt>
      <trkpt lat="40.930995" lon="-5.728546">
        <ele>886.00133</ele>
        <time>2022-05-28T17:24:44.000Z</time>
      </trkpt>
      <trkpt lat="40.93079" lon="-5.728994">
        <ele>887.079789</ele>
        <time>2022-05-28T17:24:48.000Z</time>
      </trkpt>
      <trkpt lat="40.930626" lon="-5.729348">
        <ele>888.358978</ele>
        <time>2022-05-28T17:24:51.000Z</time>
      </trkpt>
      <trkpt lat="40.928864" lon="-5.733255">
        <ele>901.338577</ele>
        <time>2022-05-28T17:25:29.000Z</time>
      </trkpt>
      <trkpt lat="40.928775" lon="-5.733451">
        <ele>901.345804</ele>
        <time>2022-05-28T17:25:31.000Z</time>
      </trkpt>
      <trkpt lat="40.928354" lon="-5.734381">
        <ele>901.378622</ele>
        <time>2022-05-28T17:25:40.000Z</time>
      </trkpt>
      <trkpt lat="40.928129" lon="-5.734907">
        <ele>901.396699</ele>
        <time>2022-05-28T17:25:45.000Z</time>
      </trkpt>
      <trkpt lat="40.928047" lon="-5.735161">
        <ele>901.060347</ele>
        <time>2022-05-28T17:25:47.000Z</time>
      </trkpt>
      <trkpt lat="40.928054" lon="-5.735257">
        <ele>900.887532</ele>
        <time>2022-05-28T17:25:48.000Z</time>
      </trkpt>
      <trkpt lat="40.928019" lon="-5.735327">
        <ele>900.738215</ele>
        <time>2022-05-28T17:25:49.000Z</time>
      </trkpt>
      <trkpt lat="40.927956" lon="-5.735355">
        <ele>900.548815</ele>
        <time>2022-05-28T17:25:50.000Z</time>
      </trkpt>
      <trkpt lat="40.927854" lon="-5.735426">
        <ele>900.246226</ele>
        <time>2022-05-28T17:25:51.000Z</time>
      </trkpt>
      <trkpt lat="40.927649" lon="-5.735782">
        <ele>899.388651</ele>
        <time>2022-05-28T17:25:55.000Z</time>
      </trkpt>
      <trkpt lat="40.926927" lon="-5.736947">
        <ele>896.612067</ele>
        <time>2022-05-28T17:26:08.000Z</time>
      </trkpt>
      <trkpt lat="40.9267" lon="-5.737315">
        <ele>896.124089</ele>
        <time>2022-05-28T17:26:12.000Z</time>
      </trkpt>
      <trkpt lat="40.926196" lon="-5.738176">
        <ele>894.981562</ele>
        <time>2022-05-28T17:26:21.000Z</time>
      </trkpt>
      <trkpt lat="40.925142" lon="-5.739932">
        <ele>891.437024</ele>
        <time>2022-05-28T17:26:40.000Z</time>
      </trkpt>
      <trkpt lat="40.923233" lon="-5.743144">
        <ele>880.428921</ele>
        <time>2022-05-28T17:27:14.000Z</time>
      </trkpt>
      <trkpt lat="40.916687" lon="-5.754053">
        <ele>846.255573</ele>
        <time>2022-05-28T17:29:11.000Z</time>
      </trkpt>
      <trkpt lat="40.914681" lon="-5.758317">
        <ele>840.163758</ele>
        <time>2022-05-28T17:29:53.000Z</time>
      </trkpt>
      <trkpt lat="40.911807" lon="-5.765076">
        <ele>833.466604</ele>
        <time>2022-05-28T17:30:58.000Z</time>
      </trkpt>
      <trkpt lat="40.90971" lon="-5.769638">
        <ele>826.949827</ele>
        <time>2022-05-28T17:31:43.000Z</time>
      </trkpt>
      <trkpt lat="40.908783" lon="-5.771593">
        <ele>825.416425</ele>
        <time>2022-05-28T17:32:02.000Z</time>
      </trkpt>
      <trkpt lat="40.905106" lon="-5.777132">
        <ele>817.220514</ele>
        <time>2022-05-28T17:33:04.000Z</time>
      </trkpt>
      <trkpt lat="40.904518" lon="-5.778049">
        <ele>817.176256</ele>
        <time>2022-05-28T17:33:14.000Z</time>
      </trkpt>
      <trkpt lat="40.904442" lon="-5.778162">
        <ele>817.197653</ele>
        <time>2022-05-28T17:33:15.000Z</time>
      </trkpt>
      <trkpt lat="40.904388" lon="-5.778238">
        <ele>817.213724</ele>
        <time>2022-05-28T17:33:16.000Z</time>
      </trkpt>
      <trkpt lat="40.903321" lon="-5.779834">
        <ele>817.813416</ele>
        <time>2022-05-28T17:33:34.000Z</time>
      </trkpt>
      <trkpt lat="40.902428" lon="-5.781396">
        <ele>818.607598</ele>
        <time>2022-05-28T17:33:50.000Z</time>
      </trkpt>
      <trkpt lat="40.902378" lon="-5.781462">
        <ele>818.640757</ele>
        <time>2022-05-28T17:33:51.000Z</time>
      </trkpt>
      <trkpt lat="40.901483" lon="-5.782956">
        <ele>819.305251</ele>
        <time>2022-05-28T17:34:07.000Z</time>
      </trkpt>
      <trkpt lat="40.901322" lon="-5.783239">
        <ele>819.428797</ele>
        <time>2022-05-28T17:34:10.000Z</time>
      </trkpt>
      <trkpt lat="40.900664" lon="-5.784514">
        <ele>819.976681</ele>
        <time>2022-05-28T17:34:23.000Z</time>
      </trkpt>
      <trkpt lat="40.898674" lon="-5.788616">
        <ele>822.412416</ele>
        <time>2022-05-28T17:35:04.000Z</time>
      </trkpt>
      <trkpt lat="40.894917" lon="-5.79537">
        <ele>827.396981</ele>
        <time>2022-05-28T17:36:14.000Z</time>
      </trkpt>
      <trkpt lat="40.891238" lon="-5.802819">
        <ele>835.587511</ele>
        <time>2022-05-28T17:37:29.000Z</time>
      </trkpt>
      <trkpt lat="40.889644" lon="-5.805996">
        <ele>838.676878</ele>
        <time>2022-05-28T17:38:01.000Z</time>
      </trkpt>
      <trkpt lat="40.889498" lon="-5.806302">
        <ele>838.99066</ele>
        <time>2022-05-28T17:38:04.000Z</time>
      </trkpt>
      <trkpt lat="40.887944" lon="-5.809439">
        <ele>843.851558</ele>
        <time>2022-05-28T17:38:36.000Z</time>
      </trkpt>
      <trkpt lat="40.884537" lon="-5.814206">
        <ele>852.674897</ele>
        <time>2022-05-28T17:39:31.000Z</time>
      </trkpt>
      <trkpt lat="40.879843" lon="-5.821886">
        <ele>860.119754</ele>
        <time>2022-05-28T17:40:54.000Z</time>
      </trkpt>
      <trkpt lat="40.873841" lon="-5.831112">
        <ele>861.661591</ele>
        <time>2022-05-28T17:42:36.000Z</time>
      </trkpt>
      <trkpt lat="40.870259" lon="-5.835512">
        <ele>862.170986</ele>
        <time>2022-05-28T17:43:30.000Z</time>
      </trkpt>
      <trkpt lat="40.868904" lon="-5.837369">
        <ele>860.538554</ele>
        <time>2022-05-28T17:43:52.000Z</time>
      </trkpt>
      <trkpt lat="40.865714" lon="-5.841828">
        <ele>856.845285</ele>
        <time>2022-05-28T17:44:44.000Z</time>
      </trkpt>
      <trkpt lat="40.865614" lon="-5.841987">
        <ele>857.000073</ele>
        <time>2022-05-28T17:44:46.000Z</time>
      </trkpt>
      <trkpt lat="40.863354" lon="-5.845193">
        <ele>868.973651</ele>
        <time>2022-05-28T17:45:23.000Z</time>
      </trkpt>
      <trkpt lat="40.862963" lon="-5.845903">
        <ele>870.099578</ele>
        <time>2022-05-28T17:45:30.000Z</time>
      </trkpt>
      <trkpt lat="40.862392" lon="-5.847843">
        <ele>870.870777</ele>
        <time>2022-05-28T17:45:48.000Z</time>
      </trkpt>
      <trkpt lat="40.861124" lon="-5.852536">
        <ele>867.011827</ele>
        <time>2022-05-28T17:46:30.000Z</time>
      </trkpt>
      <trkpt lat="40.857847" lon="-5.85942">
        <ele>856.942448</ele>
        <time>2022-05-28T17:47:38.000Z</time>
      </trkpt>
      <trkpt lat="40.856681" lon="-5.861405">
        <ele>855.053931</ele>
        <time>2022-05-28T17:47:59.000Z</time>
      </trkpt>
      <trkpt lat="40.856061" lon="-5.862435">
        <ele>854.931018</ele>
        <time>2022-05-28T17:48:10.000Z</time>
      </trkpt>
      <trkpt lat="40.855016" lon="-5.864146">
        <ele>855.819997</ele>
        <time>2022-05-28T17:48:28.000Z</time>
      </trkpt>
      <trkpt lat="40.854651" lon="-5.864788">
        <ele>855.780842</ele>
        <time>2022-05-28T17:48:35.000Z</time>
      </trkpt>
      <trkpt lat="40.854642" lon="-5.864787">
        <ele>855.780848</ele>
        <time>2022-05-28T17:48:35.000Z</time>
      </trkpt>
      <trkpt lat="40.854643" lon="-5.864773">
        <ele>855.780839</ele>
        <time>2022-05-28T17:48:35.000Z</time>
      </trkpt>
      <trkpt lat="40.856676" lon="-5.861404">
        <ele>855.004798</ele>
        <time>2022-05-28T17:49:11.000Z</time>
      </trkpt>
      <trkpt lat="40.857836" lon="-5.859419">
        <ele>856.94482</ele>
        <time>2022-05-28T17:49:32.000Z</time>
      </trkpt>
      <trkpt lat="40.86112" lon="-5.852535">
        <ele>867.055945</ele>
        <time>2022-05-28T17:50:40.000Z</time>
      </trkpt>
      <trkpt lat="40.862403" lon="-5.847848">
        <ele>870.873007</ele>
        <time>2022-05-28T17:51:22.000Z</time>
      </trkpt>
      <trkpt lat="40.862958" lon="-5.845896">
        <ele>870.105412</ele>
        <time>2022-05-28T17:51:40.000Z</time>
      </trkpt>
      <trkpt lat="40.86335" lon="-5.845196">
        <ele>868.967339</ele>
        <time>2022-05-28T17:51:47.000Z</time>
      </trkpt>
      <trkpt lat="40.865612" lon="-5.841981">
        <ele>856.989894</ele>
        <time>2022-05-28T17:52:24.000Z</time>
      </trkpt>
      <trkpt lat="40.865713" lon="-5.841832">
        <ele>856.901183</ele>
        <time>2022-05-28T17:52:26.000Z</time>
      </trkpt>
      <trkpt lat="40.868903" lon="-5.837374">
        <ele>860.530057</ele>
        <time>2022-05-28T17:53:18.000Z</time>
      </trkpt>
      <trkpt lat="40.870266" lon="-5.835511">
        <ele>862.173019</ele>
        <time>2022-05-28T17:53:40.000Z</time>
      </trkpt>
      <trkpt lat="40.873849" lon="-5.831116">
        <ele>861.701317</ele>
        <time>2022-05-28T17:54:34.000Z</time>
      </trkpt>
      <trkpt lat="40.879843" lon="-5.821884">
        <ele>860.380909</ele>
        <time>2022-05-28T17:56:16.000Z</time>
      </trkpt>
      <trkpt lat="40.884555" lon="-5.814204">
        <ele>852.765</ele>
        <time>2022-05-28T17:57:39.000Z</time>
      </trkpt>
      <trkpt lat="40.887946" lon="-5.809448">
        <ele>843.851594</ele>
        <time>2022-05-28T17:58:34.000Z</time>
      </trkpt>
      <trkpt lat="40.889492" lon="-5.806306">
        <ele>838.992358</ele>
        <time>2022-05-28T17:59:06.000Z</time>
      </trkpt>
      <trkpt lat="40.889646" lon="-5.805986">
        <ele>838.678173</ele>
        <time>2022-05-28T17:59:09.000Z</time>
      </trkpt>
      <trkpt lat="40.891229" lon="-5.802824">
        <ele>835.588074</ele>
        <time>2022-05-28T17:59:41.000Z</time>
      </trkpt>
      <trkpt lat="40.894904" lon="-5.795358">
        <ele>827.253185</ele>
        <time>2022-05-28T18:00:56.000Z</time>
      </trkpt>
      <trkpt lat="40.898675" lon="-5.788631">
        <ele>822.41252</ele>
        <time>2022-05-28T18:02:06.000Z</time>
      </trkpt>
      <trkpt lat="40.900665" lon="-5.784528">
        <ele>819.977228</ele>
        <time>2022-05-28T18:02:47.000Z</time>
      </trkpt>
      <trkpt lat="40.901318" lon="-5.783237">
        <ele>819.428724</ele>
        <time>2022-05-28T18:03:00.000Z</time>
      </trkpt>
      <trkpt lat="40.901489" lon="-5.782957">
        <ele>819.305036</ele>
        <time>2022-05-28T18:03:03.000Z</time>
      </trkpt>
      <trkpt lat="40.902367" lon="-5.781458">
        <ele>818.640828</ele>
        <time>2022-05-28T18:03:19.000Z</time>
      </trkpt>
      <trkpt lat="40.902412" lon="-5.781391">
        <ele>818.6077</ele>
        <time>2022-05-28T18:03:20.000Z</time>
      </trkpt>
      <trkpt lat="40.903317" lon="-5.779841">
        <ele>817.813479</ele>
        <time>2022-05-28T18:03:36.000Z</time>
      </trkpt>
      <trkpt lat="40.904394" lon="-5.778242">
        <ele>817.212731</ele>
        <time>2022-05-28T18:03:54.000Z</time>
      </trkpt>
      <trkpt lat="40.904448" lon="-5.778156">
        <ele>817.196313</ele>
        <time>2022-05-28T18:03:55.000Z</time>
      </trkpt>
      <trkpt lat="40.904518" lon="-5.778053">
        <ele>817.174454</ele>
        <time>2022-05-28T18:03:56.000Z</time>
      </trkpt>
      <trkpt lat="40.90511" lon="-5.777147">
        <ele>817.242569</ele>
        <time>2022-05-28T18:04:06.000Z</time>
      </trkpt>
      <trkpt lat="40.908777" lon="-5.771599">
        <ele>825.414161</ele>
        <time>2022-05-28T18:05:08.000Z</time>
      </trkpt>
      <trkpt lat="40.9097" lon="-5.769653">
        <ele>826.952584</ele>
        <time>2022-05-28T18:05:27.000Z</time>
      </trkpt>
      <trkpt lat="40.911806" lon="-5.765084">
        <ele>833.320446</ele>
        <time>2022-05-28T18:06:12.000Z</time>
      </trkpt>
      <trkpt lat="40.914674" lon="-5.758317">
        <ele>840.094019</ele>
        <time>2022-05-28T18:07:17.000Z</time>
      </trkpt>
      <trkpt lat="40.916682" lon="-5.754053">
        <ele>846.252647</ele>
        <time>2022-05-28T18:07:59.000Z</time>
      </trkpt>
      <trkpt lat="40.923226" lon="-5.743137">
        <ele>880.251272</ele>
        <time>2022-05-28T18:09:56.000Z</time>
      </trkpt>
      <trkpt lat="40.925149" lon="-5.739915">
        <ele>891.434278</ele>
        <time>2022-05-28T18:10:31.000Z</time>
      </trkpt>
      <trkpt lat="40.926188" lon="-5.738174">
        <ele>894.987727</ele>
        <time>2022-05-28T18:10:50.000Z</time>
      </trkpt>
      <trkpt lat="40.926703" lon="-5.737319">
        <ele>896.140873</ele>
        <time>2022-05-28T18:10:59.000Z</time>
      </trkpt>
      <trkpt lat="40.926929" lon="-5.73694">
        <ele>896.633392</ele>
        <time>2022-05-28T18:11:03.000Z</time>
      </trkpt>
      <trkpt lat="40.92766" lon="-5.735785">
        <ele>899.351317</ele>
        <time>2022-05-28T18:11:16.000Z</time>
      </trkpt>
      <trkpt lat="40.927875" lon="-5.735283">
        <ele>900.443923</ele>
        <time>2022-05-28T18:11:21.000Z</time>
      </trkpt>
      <trkpt lat="40.927881" lon="-5.735207">
        <ele>900.582244</ele>
        <time>2022-05-28T18:11:22.000Z</time>
      </trkpt>
      <trkpt lat="40.927964" lon="-5.735116">
        <ele>900.884738</ele>
        <time>2022-05-28T18:11:23.000Z</time>
      </trkpt>
      <trkpt lat="40.928129" lon="-5.734892">
        <ele>901.292246</ele>
        <time>2022-05-28T18:11:26.000Z</time>
      </trkpt>
      <trkpt lat="40.928774" lon="-5.733455">
        <ele>901.197041</ele>
        <time>2022-05-28T18:11:40.000Z</time>
      </trkpt>
      <trkpt lat="40.928867" lon="-5.733246">
        <ele>901.183532</ele>
        <time>2022-05-28T18:11:42.000Z</time>
      </trkpt>
      <trkpt lat="40.930629" lon="-5.729358">
        <ele>888.361058</ele>
        <time>2022-05-28T18:12:20.000Z</time>
      </trkpt>
      <trkpt lat="40.930785" lon="-5.728992">
        <ele>887.093058</ele>
        <time>2022-05-28T18:12:24.000Z</time>
      </trkpt>
      <trkpt lat="40.930999" lon="-5.728548">
        <ele>885.977713</ele>
        <time>2022-05-28T18:12:28.000Z</time>
      </trkpt>
      <trkpt lat="40.931142" lon="-5.728232">
        <ele>885.352414</ele>
        <time>2022-05-28T18:12:31.000Z</time>
      </trkpt>
      <trkpt lat="40.931779" lon="-5.726944">
        <ele>882.842051</ele>
        <time>2022-05-28T18:12:44.000Z</time>
      </trkpt>
      <trkpt lat="40.932969" lon="-5.72489">
        <ele>879.383176</ele>
        <time>2022-05-28T18:13:06.000Z</time>
      </trkpt>
      <trkpt lat="40.935697" lon="-5.720938">
        <ele>862.483439</ele>
        <time>2022-05-28T18:13:51.000Z</time>
      </trkpt>
      <trkpt lat="40.937053" lon="-5.719416">
        <ele>857.780468</ele>
        <time>2022-05-28T18:14:11.000Z</time>
      </trkpt>
      <trkpt lat="40.937127" lon="-5.7193">
        <ele>857.637331</ele>
        <time>2022-05-28T18:14:12.000Z</time>
      </trkpt>
      <trkpt lat="40.937252" lon="-5.71916">
        <ele>857.439606</ele>
        <time>2022-05-28T18:14:14.000Z</time>
      </trkpt>
      <trkpt lat="40.937489" lon="-5.718856">
        <ele>857.061526</ele>
        <time>2022-05-28T18:14:18.000Z</time>
      </trkpt>
      <trkpt lat="40.937931" lon="-5.718018">
        <ele>856.207508</ele>
        <time>2022-05-28T18:14:27.000Z</time>
      </trkpt>
      <trkpt lat="40.940777" lon="-5.711489">
        <ele>855.560172</ele>
        <time>2022-05-28T18:15:30.000Z</time>
      </trkpt>
      <trkpt lat="40.941427" lon="-5.70971">
        <ele>853.477311</ele>
        <time>2022-05-28T18:15:47.000Z</time>
      </trkpt>
      <trkpt lat="40.941865" lon="-5.708283">
        <ele>850.877807</ele>
        <time>2022-05-28T18:16:00.000Z</time>
      </trkpt>
      <trkpt lat="40.942464" lon="-5.706084">
        <ele>846.164577</ele>
        <time>2022-05-28T18:16:20.000Z</time>
      </trkpt>
      <trkpt lat="40.943591" lon="-5.701041">
        <ele>832.026106</ele>
        <time>2022-05-28T18:17:04.000Z</time>
      </trkpt>
      <trkpt lat="40.943732" lon="-5.700428">
        <ele>830.397439</ele>
        <time>2022-05-28T18:17:09.000Z</time>
      </trkpt>
      <trkpt lat="40.943787" lon="-5.700139">
        <ele>829.712732</ele>
        <time>2022-05-28T18:17:12.000Z</time>
      </trkpt>
      <trkpt lat="40.944297" lon="-5.697835">
        <ele>824.856556</ele>
        <time>2022-05-28T18:17:32.000Z</time>
      </trkpt>
      <trkpt lat="40.944725" lon="-5.695904">
        <ele>822.089746</ele>
        <time>2022-05-28T18:17:49.000Z</time>
      </trkpt>
      <trkpt lat="40.94488" lon="-5.695322">
        <ele>821.127498</ele>
        <time>2022-05-28T18:17:54.000Z</time>
      </trkpt>
      <trkpt lat="40.945007" lon="-5.695038">
        <ele>820.588671</ele>
        <time>2022-05-28T18:17:57.000Z</time>
      </trkpt>
      <trkpt lat="40.94552" lon="-5.694041">
        <ele>818.64661</ele>
        <time>2022-05-28T18:18:07.000Z</time>
      </trkpt>
      <trkpt lat="40.945981" lon="-5.692864">
        <ele>816.242704</ele>
        <time>2022-05-28T18:18:18.000Z</time>
      </trkpt>
      <trkpt lat="40.946019" lon="-5.692739">
        <ele>815.967724</ele>
        <time>2022-05-28T18:18:19.000Z</time>
      </trkpt>
      <trkpt lat="40.946122" lon="-5.692487">
        <ele>815.456519</ele>
        <time>2022-05-28T18:18:21.000Z</time>
      </trkpt>
      <trkpt lat="40.948308" lon="-5.686655">
        <ele>808.140081</ele>
        <time>2022-05-28T18:19:16.000Z</time>
      </trkpt>
      <trkpt lat="40.948556" lon="-5.686014">
        <ele>807.705442</ele>
        <time>2022-05-28T18:19:22.000Z</time>
      </trkpt>
      <trkpt lat="40.948637" lon="-5.68587">
        <ele>807.595475</ele>
        <time>2022-05-28T18:19:24.000Z</time>
      </trkpt>
      <trkpt lat="40.948682" lon="-5.685805">
        <ele>807.550009</ele>
        <time>2022-05-28T18:19:25.000Z</time>
      </trkpt>
      <trkpt lat="40.948797" lon="-5.685645">
        <ele>807.422011</ele>
        <time>2022-05-28T18:19:27.000Z</time>
      </trkpt>
      <trkpt lat="40.949783" lon="-5.684177">
        <ele>806.538697</ele>
        <time>2022-05-28T18:19:43.000Z</time>
      </trkpt>
      <trkpt lat="40.949855" lon="-5.684064">
        <ele>806.475571</ele>
        <time>2022-05-28T18:19:44.000Z</time>
      </trkpt>
      <trkpt lat="40.950548" lon="-5.683069">
        <ele>804.479096</ele>
        <time>2022-05-28T18:19:55.000Z</time>
      </trkpt>
      <trkpt lat="40.950602" lon="-5.682981">
        <ele>804.25155</ele>
        <time>2022-05-28T18:19:56.000Z</time>
      </trkpt>
      <trkpt lat="40.951438" lon="-5.681754">
        <ele>801.112508</ele>
        <time>2022-05-28T18:20:10.000Z</time>
      </trkpt>
      <trkpt lat="40.951492" lon="-5.681692">
        <ele>800.895019</ele>
        <time>2022-05-28T18:20:11.000Z</time>
      </trkpt>
      <trkpt lat="40.951919" lon="-5.681296">
        <ele>799.341911</ele>
        <time>2022-05-28T18:20:17.000Z</time>
      </trkpt>
      <trkpt lat="40.952968" lon="-5.680376">
        <ele>795.325102</ele>
        <time>2022-05-28T18:20:31.000Z</time>
      </trkpt>
      <trkpt lat="40.953024" lon="-5.680326">
        <ele>795.056313</ele>
        <time>2022-05-28T18:20:32.000Z</time>
      </trkpt>
      <trkpt lat="40.953325" lon="-5.680119">
        <ele>793.838908</ele>
        <time>2022-05-28T18:20:36.000Z</time>
      </trkpt>
      <trkpt lat="40.953478" lon="-5.67998">
        <ele>793.152767</ele>
        <time>2022-05-28T18:20:38.000Z</time>
      </trkpt>
      <trkpt lat="40.953756" lon="-5.679742">
        <ele>791.928849</ele>
        <time>2022-05-28T18:20:42.000Z</time>
      </trkpt>
      <trkpt lat="40.953821" lon="-5.679696">
        <ele>791.658314</ele>
        <time>2022-05-28T18:20:43.000Z</time>
      </trkpt>
      <trkpt lat="40.954007" lon="-5.679562">
        <ele>790.881018</ele>
        <time>2022-05-28T18:20:45.000Z</time>
      </trkpt>
      <trkpt lat="40.954389" lon="-5.679228">
        <ele>789.260929</ele>
        <time>2022-05-28T18:20:50.000Z</time>
      </trkpt>
      <trkpt lat="40.95452" lon="-5.679031">
        <ele>788.569533</ele>
        <time>2022-05-28T18:20:52.000Z</time>
      </trkpt>
      <trkpt lat="40.954657" lon="-5.67864">
        <ele>787.462203</ele>
        <time>2022-05-28T18:20:56.000Z</time>
      </trkpt>
      <trkpt lat="40.954676" lon="-5.678308">
        <ele>786.565844</ele>
        <time>2022-05-28T18:20:59.000Z</time>
      </trkpt>
      <trkpt lat="40.954619" lon="-5.677793">
        <ele>785.197082</ele>
        <time>2022-05-28T18:21:03.000Z</time>
      </trkpt>
      <trkpt lat="40.954581" lon="-5.677795">
        <ele>785.047905</ele>
        <time>2022-05-28T18:21:03.000Z</time>
      </trkpt>
      <trkpt lat="40.954457" lon="-5.677244">
        <ele>783.562488</ele>
        <time>2022-05-28T18:21:08.000Z</time>
      </trkpt>
      <trkpt lat="40.954567" lon="-5.677792">
        <ele>782.149826</ele>
        <time>2022-05-28T18:21:13.000Z</time>
      </trkpt>
      <trkpt lat="40.954621" lon="-5.677789">
        <ele>782.010179</ele>
        <time>2022-05-28T18:21:14.000Z</time>
      </trkpt>
      <trkpt lat="40.954609" lon="-5.677758">
        <ele>781.931351</ele>
        <time>2022-05-28T18:21:14.000Z</time>
      </trkpt>
      <trkpt lat="40.954363" lon="-5.676712">
        <ele>779.233371</ele>
        <time>2022-05-28T18:21:23.000Z</time>
      </trkpt>
      <trkpt lat="40.95432" lon="-5.676599">
        <ele>778.941468</ele>
        <time>2022-05-28T18:21:24.000Z</time>
      </trkpt>
      <trkpt lat="40.954307" lon="-5.676449">
        <ele>778.528796</ele>
        <time>2022-05-28T18:21:25.000Z</time>
      </trkpt>
      <trkpt lat="40.954383" lon="-5.676351">
        <ele>778.194711</ele>
        <time>2022-05-28T18:21:26.000Z</time>
      </trkpt>
      <trkpt lat="40.954439" lon="-5.676323">
        <ele>777.994528</ele>
        <time>2022-05-28T18:21:27.000Z</time>
      </trkpt>
      <trkpt lat="40.954479" lon="-5.676323">
        <ele>777.913867</ele>
        <time>2022-05-28T18:21:27.000Z</time>
      </trkpt>
      <trkpt lat="40.954613" lon="-5.676294">
        <ele>777.609709</ele>
        <time>2022-05-28T18:21:29.000Z</time>
      </trkpt>
      <trkpt lat="40.954634" lon="-5.676289">
        <ele>777.567677</ele>
        <time>2022-05-28T18:21:29.000Z</time>
      </trkpt>
      <trkpt lat="40.954893" lon="-5.676085">
        <ele>776.864808</ele>
        <time>2022-05-28T18:21:32.000Z</time>
      </trkpt>
      <trkpt lat="40.954919" lon="-5.676035">
        <ele>776.748386</ele>
        <time>2022-05-28T18:21:33.000Z</time>
      </trkpt>
      <trkpt lat="40.955012" lon="-5.675958">
        <ele>776.493794</ele>
        <time>2022-05-28T18:21:34.000Z</time>
      </trkpt>
      <trkpt lat="40.955139" lon="-5.675962">
        <ele>776.238384</ele>
        <time>2022-05-28T18:21:35.000Z</time>
      </trkpt>
      <trkpt lat="40.955227" lon="-5.676101">
        <ele>775.926622</ele>
        <time>2022-05-28T18:21:37.000Z</time>
      </trkpt>
      <trkpt lat="40.955391" lon="-5.676194">
        <ele>775.487122</ele>
        <time>2022-05-28T18:21:39.000Z</time>
      </trkpt>
      <trkpt lat="40.955882" lon="-5.67622">
        <ele>774.362351</ele>
        <time>2022-05-28T18:21:44.000Z</time>
      </trkpt>
      <trkpt lat="40.956627" lon="-5.676158">
        <ele>773.678305</ele>
        <time>2022-05-28T18:21:52.000Z</time>
      </trkpt>
      <trkpt lat="40.956941" lon="-5.676038">
        <ele>773.525151</ele>
        <time>2022-05-28T18:21:56.000Z</time>
      </trkpt>
      <trkpt lat="40.957349" lon="-5.675794">
        <ele>773.32001</ele>
        <time>2022-05-28T18:22:01.000Z</time>
      </trkpt>
      <trkpt lat="40.957502" lon="-5.675652">
        <ele>773.236806</ele>
        <time>2022-05-28T18:22:03.000Z</time>
      </trkpt>
      <trkpt lat="40.957636" lon="-5.675421">
        <ele>773.132108</ele>
        <time>2022-05-28T18:22:05.000Z</time>
      </trkpt>
      <trkpt lat="40.957654" lon="-5.67519">
        <ele>773.06977723</ele>
        <time>2022-05-28T18:22:07.000Z</time>
      </trkpt>
      <trkpt lat="40.957623" lon="-5.674995">
        <ele>773.016291122</ele>
        <time>2022-05-28T18:22:09.000Z</time>
      </trkpt>
      <trkpt lat="40.957496" lon="-5.67467">
        <ele>772.918073177</ele>
        <time>2022-05-28T18:22:12.000Z</time>
      </trkpt>
      <trkpt lat="40.957308" lon="-5.674303">
        <ele>772.79904452</ele>
        <time>2022-05-28T18:22:16.000Z</time>
      </trkpt>
      <trkpt lat="40.957173" lon="-5.674072">
        <ele>772.720645632</ele>
        <time>2022-05-28T18:22:18.000Z</time>
      </trkpt>
      <trkpt lat="40.956852" lon="-5.673436">
        <ele>772.515324184</ele>
        <time>2022-05-28T18:22:24.000Z</time>
      </trkpt>
      <trkpt lat="40.956374" lon="-5.672328">
        <ele>772.172823229</ele>
        <time>2022-05-28T18:22:35.000Z</time>
      </trkpt>
    </trkseg>
  </trk>
</gpx>

<!--
Performance optimized by W3 Total Cache. Learn more: https://www.boldgrid.com/w3-total-cache/?utm_source=w3tc&utm_medium=footer_comment&utm_campaign=free_plugin

Page Caching using Disk: Enhanced{w3tc_pagecache_reject_reason} 

Served from: www.aquabike.world @ 2026-05-10 13:30:36 by W3 Total Cache
-->